Waterloo Airport
CYKF : now visible

Airfield :











YOU CAN JOIN US ON...

 
LOGIN :

Register | Disclaimer

   EN    FR    IT 

 









Legend :    VFR   Marginal VFR   IFR   Intensive IFR   Very Intensive IFR
Visi :
Ceiling :
>= 8 km
>= 3000ft
5 to 8 km
1000 to 3000 ft
1500m to 5 km
500 to 1000 ft
800 to 1500m
200 to 500 ft
< 800m
< 200 ft
Symbols :   Thunderstorms  Fog  Heavy snow  Heavy precipitations  Wind > 20 kt






- Airport Elevation : 1054 ft
- IATA code : YKF


CYKF - Waterloo

CURRENT METAR :
  • 040500Z AUTO 00000KT 9SM OVC240 14/10 A3017 RMK SLP217

EXPIRED METARs :
  • 040400Z AUTO 00000KT 9SM CLR 13/11 A3017 RMK SLP216
  • 040300Z AUTO 00000KT 9SM SCT240 14/10 A3016 RMK SLP213

TAF TAF CYKF
Valid from the 04 at 02:00 until the 04 at 14:00 UTC


040140Z 0402/0414 34005KT P6SM SKC
FM040500 VRB03KT P6SM SCT060 RMK FCST BASED ON AUTO OBS. NXT FCST BY 040800Z
CZYZ FIR / North America



MET'MAP, your aeronautical weather chart ! - Copyright ORBIFLY December 2007 - Disclaimer

ORBIFLY MET'MAP TEAM :

Programming & Development : Alexandra Zaïnal
Original concept : Baudouin d'Aumeries
Technical & hardware support : Manuel Goepfert
Assistance : Marc-Olivier Méhu




SOURCES & CREDITS :

   NOAA       Earth
Advisory